Time;durP1;ratioP1;P1;durP2;ratioP2;P2;SDS_P1;SDS_P2;PMS_P1;PMS_P2;Temp;Humidity;BMP_temperature;BMP_pressure;BME280_temperature;BME280_humidity;BME280_pressure;Samples;Min_cycle;Max_cycle;Signal;HPM_P1;HPM_P2
2021/01/18 00:01:53;;;;;;;32.58;8.43;;;;;;;4.08;100.00;102494.88;5183793;28;20034;-68
2021/01/18 00:04:23;;;;;;;20.17;7.90;;;;;;;4.06;100.00;102504.72;5190154;28;20029;-68
2021/01/18 00:06:54;;;;;;;41.83;8.80;;;;;;;4.07;100.00;102504.66;5189763;28;20727;-67
2021/01/18 00:09:24;;;;;;;30.75;8.90;;;;;;;4.07;100.00;102503.81;5184162;28;20446;-69
2021/01/18 00:11:55;;;;;;;26.35;9.13;;;;;;;4.04;100.00;102507.47;5183590;28;20021;-67
2021/01/18 00:14:25;;;;;;;23.95;8.55;;;;;;;4.01;100.00;102502.31;5182979;28;20392;-67
2021/01/18 00:16:56;;;;;;;27.75;9.27;;;;;;;4.01;100.00;102493.50;5183121;28;20083;-67
2021/01/18 00:19:26;;;;;;;28.38;9.57;;;;;;;3.95;100.00;102491.16;5194465;28;20450;-67
2021/01/18 00:21:56;;;;;;;27.95;8.98;;;;;;;4.01;100.00;102478.41;5204018;28;20419;-67
2021/01/18 00:24:27;;;;;;;30.58;9.10;;;;;;;3.96;100.00;102479.59;5178524;28;20037;-68
2021/01/18 00:26:57;;;;;;;24.10;8.80;;;;;;;3.88;100.00;102480.03;5182459;28;20477;-68
2021/01/18 00:29:28;;;;;;;31.13;9.00;;;;;;;3.93;100.00;102477.13;5195851;28;20106;-68
2021/01/18 00:31:58;;;;;;;23.85;8.93;;;;;;;3.94;100.00;102469.06;5183810;28;20045;-67
2021/01/18 00:34:29;;;;;;;26.83;8.75;;;;;;;3.90;100.00;102468.38;5182093;28;20029;-67
2021/01/18 00:36:59;;;;;;;28.77;8.75;;;;;;;3.86;100.00;102465.97;5192386;28;20105;-68
2021/01/18 00:39:30;;;;;;;27.30;9.07;;;;;;;3.85;100.00;102466.91;5181378;28;20049;-67
2021/01/18 00:42:00;;;;;;;30.92;9.60;;;;;;;3.86;100.00;102466.81;5192497;28;20036;-67
2021/01/18 00:44:31;;;;;;;24.77;8.88;;;;;;;3.86;100.00;102466.81;5199457;28;20022;-68
2021/01/18 00:47:02;;;;;;;19.33;9.65;;;;;;;3.85;100.00;102466.91;5183616;28;20033;-68
2021/01/18 00:49:33;;;;;;;25.05;8.55;;;;;;;3.87;100.00;102460.59;5182614;28;20025;-67
2021/01/18 00:52:03;;;;;;;25.23;8.95;;;;;;;3.84;100.00;102459.91;5195310;28;20033;-68
2021/01/18 00:54:34;;;;;;;31.77;9.00;;;;;;;3.76;100.00;102460.28;5183195;28;20049;-68
2021/01/18 00:57:04;;;;;;;32.33;9.93;;;;;;;3.75;100.00;102460.38;5196585;28;20017;-67
2021/01/18 00:59:35;;;;;;;27.10;8.25;;;;;;;3.72;100.00;102455.25;5203058;28;20057;-67
2021/01/18 01:02:05;;;;;;;21.33;8.60;;;;;;;3.71;100.00;102451.72;5203531;28;20033;-69
2021/01/18 01:04:36;;;;;;;28.55;9.18;;;;;;;3.76;100.00;102440.84;5201974;28;20014;-69
2021/01/18 01:07:06;;;;;;;24.63;8.52;;;;;;;3.83;100.00;102440.47;5203043;28;20387;-67
2021/01/18 01:09:36;;;;;;;25.63;8.48;;;;;;;3.79;100.00;102432.75;5203219;28;20107;-68
2021/01/18 01:12:08;;;;;;;24.83;9.02;;;;;;;3.76;100.00;102443.50;5186637;28;20021;-67
2021/01/18 01:14:38;;;;;;;29.50;8.98;;;;;;;3.77;100.00;102435.50;5191825;28;20022;-67
2021/01/18 01:17:10;;;;;;;26.30;9.05;;;;;;;3.72;100.00;102440.19;5197675;28;20037;-68
2021/01/18 01:19:40;;;;;;;30.40;9.30;;;;;;;3.66;100.00;102439.63;5182398;28;20480;-68
2021/01/18 01:22:11;;;;;;;23.17;8.52;;;;;;;3.67;100.00;102436.06;5182672;28;20030;-67
2021/01/18 01:24:41;;;;;;;26.95;9.05;;;;;;;3.66;100.00;102437.84;5168173;28;20018;-67
2021/01/18 01:27:12;;;;;;;22.85;8.50;;;;;;;3.70;100.00;102443.84;5182630;28;20026;-69
2021/01/18 01:29:42;;;;;;;29.85;7.78;;;;;;;3.71;100.00;102442.91;5183638;28;20539;-67
2021/01/18 01:32:13;;;;;;;25.17;10.05;;;;;;;3.66;100.00;102439.63;5193280;28;20045;-67
2021/01/18 01:34:43;;;;;;;25.42;9.32;;;;;;;3.61;100.00;102435.47;5197521;28;20530;-67
2021/01/18 01:37:14;;;;;;;25.60;9.13;;;;;;;3.56;100.00;102429.50;5202331;28;20021;-67
2021/01/18 01:39:44;;;;;;;26.08;9.18;;;;;;;3.44;100.00;102427.53;5183664;28;20034;-69
2021/01/18 01:42:21;;;;;;;33.30;9.82;;;;;;;3.38;100.00;102423.41;5202863;28;20025;-68
2021/01/18 01:44:52;;;;;;;27.52;9.60;;;;;;;3.26;100.00;102420.53;5201653;28;20041;-67
2021/01/18 01:47:28;;;;;;;27.40;8.88;;;;;;;3.16;100.00;102430.75;5189371;28;20029;-68
2021/01/18 01:50:03;;;;;;;31.73;9.13;;;;;;;3.04;100.00;102429.63;5181891;28;20451;-68
2021/01/18 01:52:38;;;;;;;41.95;10.18;;;;;;;2.90;100.00;102425.97;5195244;28;20034;-68
2021/01/18 01:55:18;;;;;;;35.75;10.85;;;;;;;2.78;100.00;102430.94;5181059;28;20031;-67
2021/01/18 01:57:49;;;;;;;43.78;10.35;;;;;;;2.71;100.00;102426.03;5187765;28;20029;-67
2021/01/18 02:00:22;;;;;;;34.35;10.18;;;;;;;2.60;100.00;102424.75;5202668;28;20379;-67
2021/01/18 02:02:52;;;;;;;29.80;10.00;;;;;;;2.60;100.00;102424.75;5201518;28;20509;-68
2021/01/18 02:05:23;;;;;;;27.85;10.52;;;;;;;2.58;100.00;102431.94;5202242;28;20061;-67
2021/01/18 02:07:58;;;;;;;34.55;9.82;;;;;;;2.49;100.00;102428.88;5193776;28;20029;-67
2021/01/18 02:10:30;;;;;;;35.05;9.63;;;;;;;2.43;100.00;102432.69;5198534;28;20025;-68
2021/01/18 02:13:11;;;;;;;26.25;10.77;;;;;;;2.39;100.00;102433.78;5190855;28;20026;-67
2021/01/18 02:15:59;;;;;;;35.60;10.60;;;;;;;2.37;100.00;102426.84;5181313;28;20022;-67
2021/01/18 02:18:53;;;;;;;31.30;10.05;;;;;;;2.33;100.00;102426.13;5181825;28;20029;-67
2021/01/18 02:21:54;;;;;;;29.63;10.13;;;;;;;2.31;100.00;102422.72;5181804;28;20500;-68
2021/01/18 02:25:00;;;;;;;37.53;12.18;;;;;;;2.32;100.00;102419.13;5161559;28;20030;-67
2021/01/18 02:27:57;;;;;;;32.17;10.50;;;;;;;2.28;100.00;102436.94;5171802;28;20101;-67
2021/01/18 02:30:36;;;;;;;35.67;10.68;;;;;;;2.29;100.00;102429.84;5181793;28;20033;-67
2021/01/18 02:33:25;;;;;;;47.88;11.52;;;;;;;2.25;100.00;102429.13;5180784;28;20064;-67
2021/01/18 02:36:03;;;;;;;27.90;11.65;;;;;;;2.26;100.00;102425.59;5194520;28;20029;-67
2021/01/18 02:39:02;;;;;;;40.10;11.02;;;;;;;2.28;100.00;102420.22;5168742;28;20141;-67
2021/01/18 02:41:39;;;;;;;35.05;10.70;;;;;;;2.23;100.00;102416.91;5181416;28;20526;-67
2021/01/18 02:44:15;;;;;;;30.42;11.25;;;;;;;2.25;100.00;102425.63;5185420;28;20072;-68
2021/01/18 02:46:48;;;;;;;34.83;11.15;;;;;;;2.14;100.00;102426.16;5194395;28;20067;-67
2021/01/18 02:49:21;;;;;;;42.33;12.20;;;;;;;2.21;100.00;102432.00;5189427;28;20026;-67
2021/01/18 02:51:58;;;;;;;38.47;10.93;;;;;;;2.15;100.00;102427.88;5185363;28;20022;-68
2021/01/18 02:54:29;;;;;;;36.45;12.10;;;;;;;2.11;100.00;102431.63;5198525;28;20033;-67
2021/01/18 02:57:04;;;;;;;34.65;11.75;;;;;;;2.11;100.00;102428.09;5185496;28;20496;-67
2021/01/18 02:59:35;;;;;;;42.10;12.10;;;;;;;2.02;100.00;102430.25;5185484;28;20034;-67
2021/01/18 03:02:10;;;;;;;37.40;11.80;;;;;;;2.01;100.00;102438.28;5186599;28;20693;-67
2021/01/18 03:05:10;;;;;;;37.22;11.52;;;;;;;2.05;100.00;102435.38;5205676;28;20551;-67
2021/01/18 03:08:02;;;;;;;43.72;12.90;;;;;;;1.99;100.00;102440.97;5205811;28;20352;-67
2021/01/18 03:10:40;;;;;;;38.00;12.38;;;;;;;1.94;100.00;102445.63;5188023;28;20034;-67
2021/01/18 03:13:25;;;;;;;46.15;13.27;;;;;;;1.97;100.00;102439.34;5184303;28;20283;-67
2021/01/18 03:16:02;;;;;;;28.85;10.27;;;;;;;1.95;100.00;102447.34;5184608;28;20438;-68
2021/01/18 03:18:34;;;;;;;35.38;12.00;;;;;;;1.97;100.00;102442.00;5173069;28;20030;-67
2021/01/18 03:21:06;;;;;;;41.28;12.77;;;;;;;1.93;100.00;102435.97;5196382;28;20044;-67
2021/01/18 03:23:43;;;;;;;36.45;11.95;;;;;;;1.89;100.00;102449.41;5194022;28;20089;-67
2021/01/18 03:26:14;;;;;;;36.72;13.52;;;;;;;1.85;100.00;102447.84;5177810;28;20454;-68
2021/01/18 03:28:44;;;;;;;35.50;12.65;;;;;;;1.80;100.00;102443.63;5204849;28;20112;-68
2021/01/18 03:31:15;;;;;;;39.65;12.50;;;;;;;1.80;100.00;102440.97;5187798;28;20018;-67
2021/01/18 03:33:45;;;;;;;39.45;12.27;;;;;;;1.83;100.00;102441.78;5181720;28;20065;-67
2021/01/18 03:36:16;;;;;;;37.38;12.63;;;;;;;1.84;100.00;102439.03;5198308;28;20445;-67
2021/01/18 03:38:46;;;;;;;40.17;12.52;;;;;;;1.87;100.00;102430.13;5190860;28;20035;-68
2021/01/18 03:41:18;;;;;;;36.95;12.23;;;;;;;1.88;100.00;102419.44;5204749;28;20260;-67
2021/01/18 03:43:49;;;;;;;39.40;12.30;;;;;;;1.84;100.00;102420.53;5193087;28;20026;-68
2021/01/18 03:46:19;;;;;;;50.53;13.73;;;;;;;1.83;100.00;102420.59;5197950;28;20480;-67
2021/01/18 03:48:50;;;;;;;34.65;12.05;;;;;;;1.76;100.00;102415.59;5184377;28;20445;-67
2021/01/18 03:51:20;;;;;;;43.60;12.98;;;;;;;1.70;100.00;102415.84;5184077;28;20026;-67
2021/01/18 03:53:51;;;;;;;39.22;13.93;;;;;;;1.69;100.00;102413.28;5181960;28;20472;-68
2021/01/18 03:56:21;;;;;;;38.33;13.48;;;;;;;1.67;100.00;102409.88;5184997;28;20029;-67
2021/01/18 03:58:51;;;;;;;38.67;14.05;;;;;;;1.63;100.00;102419.72;5183846;28;20072;-67
2021/01/18 04:01:22;;;;;;;55.70;14.13;;;;;;;1.57;100.00;102417.38;5184547;28;20281;-67
2021/01/18 04:03:52;;;;;;;44.88;12.93;;;;;;;1.54;100.00;102412.22;5185582;28;20426;-68
2021/01/18 04:06:23;;;;;;;48.97;13.80;;;;;;;1.51;100.00;102409.72;5195269;28;20022;-69
2021/01/18 04:08:53;;;;;;;36.67;13.13;;;;;;;1.49;100.00;102406.28;5187635;28;20041;-68
2021/01/18 04:11:24;;;;;;;55.20;14.48;;;;;;;1.48;100.00;102413.34;5205178;28;20052;-67
2021/01/18 04:13:54;;;;;;;45.22;14.05;;;;;;;1.46;100.00;102403.78;5185227;28;20058;-67
2021/01/18 04:16:25;;;;;;;47.70;13.70;;;;;;;1.47;100.00;102408.13;5195410;28;20075;-67
2021/01/18 04:18:55;;;;;;;41.35;14.18;;;;;;;1.42;100.00;102404.84;5190012;28;20079;-68
2021/01/18 04:21:26;;;;;;;40.47;13.10;;;;;;;1.41;100.00;102408.41;5191512;28;20527;-68
2021/01/18 04:23:56;;;;;;;53.65;14.68;;;;;;;1.36;100.00;102405.13;5183030;28;20045;-67
2021/01/18 04:26:26;;;;;;;48.70;14.05;;;;;;;1.35;100.00;102395.44;5183974;28;20499;-67
2021/01/18 04:28:57;;;;;;;38.05;13.85;;;;;;;1.29;100.00;102397.44;5182846;28;20497;-68
2021/01/18 04:31:27;;;;;;;41.60;13.18;;;;;;;1.27;100.00;102395.81;5184058;28;20420;-68
2021/01/18 04:33:58;;;;;;;42.85;12.70;;;;;;;1.24;100.00;102391.50;5192882;28;20035;-67
2021/01/18 04:36:36;;;;;;;43.47;12.68;;;;;;;1.21;100.00;102394.31;5204260;28;20032;-67
2021/01/18 04:39:09;;;;;;;38.75;13.30;;;;;;;1.19;100.00;102390.00;5185327;28;20480;-67
2021/01/18 04:41:42;;;;;;;40.47;12.77;;;;;;;1.17;100.00;102395.34;5182930;28;20034;-69
2021/01/18 04:44:16;;;;;;;43.80;13.00;;;;;;;1.11;100.00;102393.00;5182456;28;20392;-67
2021/01/18 04:46:46;;;;;;;35.38;13.52;;;;;;;1.04;100.00;102396.81;5183664;28;20564;-68
2021/01/18 04:49:17;;;;;;;46.10;15.05;;;;;;;0.99;100.00;102399.66;5185746;28;20108;-67
2021/01/18 04:51:55;;;;;;;43.88;15.70;;;;;;;0.96;100.00;102402.44;5193385;28;20026;-67
2021/01/18 04:54:26;;;;;;;46.35;15.38;;;;;;;0.93;100.00;102402.56;5182205;28;20388;-67
2021/01/18 04:57:08;;;;;;;44.38;15.88;;;;;;;0.91;100.00;102395.66;5183782;28;20495;-67
2021/01/18 04:59:47;;;;;;;48.42;15.13;;;;;;;0.84;100.00;102384.47;5191012;28;20033;-66
2021/01/18 05:02:19;;;;;;;44.42;15.20;;;;;;;0.83;100.00;102389.81;5186747;28;20083;-66
2021/01/18 05:04:51;;;;;;;63.72;16.02;;;;;;;0.79;100.00;102383.81;5192482;28;20040;-68
2021/01/18 05:07:59;;;;;;;54.65;16.75;;;;;;;0.76;100.00;102390.09;5203710;28;20068;-67
2021/01/18 05:10:31;;;;;;;44.83;16.60;;;;;;;0.71;100.00;102386.78;5201689;28;20510;-67
2021/01/18 05:13:04;;;;;;;46.13;15.05;;;;;;;0.69;100.00;102385.97;5192006;28;20434;-67
2021/01/18 05:15:36;;;;;;;43.38;15.25;;;;;;;0.67;100.00;102386.97;5195390;28;20096;-67
2021/01/18 05:18:07;;;;;;;48.55;15.65;;;;;;;0.66;100.00;102387.91;5170119;28;20026;-67
2021/01/18 05:20:37;;;;;;;54.70;16.30;;;;;;;0.66;100.00;102385.28;5182066;28;20034;-67
2021/01/18 05:23:08;;;;;;;78.30;19.35;;;;;;;0.67;100.00;102382.56;5180219;28;20036;-67
2021/01/18 05:25:38;;;;;;;68.07;19.52;;;;;;;0.69;100.00;102383.34;5170996;28;20380;-67
2021/01/18 05:28:09;;;;;;;77.05;21.63;;;;;;;0.72;100.00;102380.56;5182291;28;20056;-67
2021/01/18 05:30:42;;;;;;;68.13;21.80;;;;;;;0.78;100.00;102385.59;5191958;28;20040;-67
2021/01/18 05:33:14;;;;;;;60.13;20.48;;;;;;;0.82;100.00;102386.31;5185226;28;20037;-67
2021/01/18 05:35:47;;;;;;;69.07;21.65;;;;;;;0.83;100.00;102384.53;5181603;28;20025;-68
2021/01/18 05:38:18;;;;;;;69.15;21.67;;;;;;;0.82;100.00;102378.41;5179718;28;20033;-67
2021/01/18 05:40:51;;;;;;;61.10;19.38;;;;;;;0.84;100.00;102371.25;5181737;28;20026;-67
2021/01/18 05:43:33;;;;;;;50.33;17.90;;;;;;;0.84;100.00;102373.91;5181785;28;20049;-68
2021/01/18 05:46:04;;;;;;;53.90;17.13;;;;;;;0.87;100.00;102367.63;5181464;28;20511;-67
2021/01/18 05:48:36;;;;;;;56.33;17.25;;;;;;;0.93;100.00;102367.38;5182697;28;20037;-69
2021/01/18 05:51:07;;;;;;;50.35;18.45;;;;;;;0.97;100.00;102367.16;5181856;28;20045;-67
2021/01/18 05:53:43;;;;;;;52.33;17.73;;;;;;;1.03;100.00;102360.75;5181620;28;20026;-68
2021/01/18 05:56:17;;;;;;;59.88;18.65;;;;;;;1.06;100.00;102365.91;5201408;28;20025;-67
2021/01/18 05:58:48;;;;;;;56.03;16.58;;;;;;;1.07;100.00;102361.47;5188518;28;20056;-68
2021/01/18 06:01:38;;;;;;;47.15;15.07;;;;;;;1.13;100.00;102366.47;5181821;28;20018;-67
2021/01/18 06:04:11;;;;;;;51.33;15.20;;;;;;;1.14;100.00;102368.19;5199137;28;20395;-67
2021/01/18 06:06:44;;;;;;;45.22;15.65;;;;;;;1.14;100.00;102374.34;5202096;28;20032;-68
2021/01/18 06:09:14;;;;;;;52.03;15.77;;;;;;;1.14;100.00;102371.69;5195673;28;20056;-67
2021/01/18 06:11:45;;;;;;;46.72;15.70;;;;;;;1.14;100.00;102363.75;5195284;28;20033;-67
2021/01/18 06:14:18;;;;;;;41.80;14.15;;;;;;;1.17;100.00;102376.84;5201780;28;20021;-68
2021/01/18 06:16:48;;;;;;;65.35;14.90;;;;;;;1.14;100.00;102371.69;5186421;28;20028;-67
2021/01/18 06:19:22;;;;;;;40.50;14.23;;;;;;;1.18;100.00;102370.63;5181790;28;20029;-67
2021/01/18 06:21:52;;;;;;;51.53;14.75;;;;;;;1.22;100.00;102364.28;5181450;28;20387;-67
2021/01/18 06:24:27;;;;;;;48.17;14.25;;;;;;;1.20;100.00;102367.91;5169805;28;20034;-67
2021/01/18 06:26:58;;;;;;;51.13;16.05;;;;;;;1.19;100.00;102360.91;5180418;28;20506;-67
2021/01/18 06:29:38;;;;;;;41.13;13.30;;;;;;;1.22;100.00;102361.66;5195185;28;20030;-66
2021/01/18 06:32:13;;;;;;;41.20;13.10;;;;;;;1.23;100.00;102363.34;5201674;28;20495;-68
2021/01/18 06:34:43;;;;;;;45.20;14.18;;;;;;;1.23;100.00;102368.63;5198117;28;20030;-67
2021/01/18 06:37:20;;;;;;;48.08;13.30;;;;;;;1.21;100.00;102367.88;5191854;28;20035;-67
2021/01/18 06:39:58;;;;;;;45.78;14.75;;;;;;;1.21;100.00;102375.78;5179962;28;20045;-67
2021/01/18 06:42:29;;;;;;;47.10;15.15;;;;;;;1.24;100.00;102366.84;5180590;28;20407;-67
2021/01/18 06:44:59;;;;;;;40.75;12.95;;;;;;;1.26;100.00;102373.81;5202077;28;20010;-67
2021/01/18 06:47:32;;;;;;;50.50;14.52;;;;;;;1.34;100.00;102369.94;5186769;28;20109;-67
2021/01/18 06:50:05;;;;;;;53.78;15.18;;;;;;;1.35;100.00;102375.16;5182501;28;20022;-69
2021/01/18 06:52:45;;;;;;;46.72;13.30;;;;;;;1.43;100.00;102369.53;5180392;28;20037;-67
2021/01/18 06:55:25;;;;;;;47.30;12.30;;;;;;;1.46;100.00;102372.91;5181566;28;20018;-67
2021/01/18 06:58:22;;;;;;;53.53;13.32;;;;;;;1.52;100.00;102375.25;5188563;28;20033;-67
2021/01/18 07:00:58;;;;;;;38.38;12.75;;;;;;;1.50;100.00;102371.81;5201845;28;20479;-68
2021/01/18 07:03:39;;;;;;;49.35;14.90;;;;;;;1.53;100.00;102370.81;5187726;28;20079;-68
2021/01/18 07:06:22;;;;;;;40.20;12.10;;;;;;;1.55;100.00;102375.09;5181182;28;20064;-67
2021/01/18 07:08:56;;;;;;;46.05;12.13;;;;;;;1.57;100.00;102369.75;5181348;28;20029;-67
2021/01/18 07:11:28;;;;;;;45.60;11.88;;;;;;;1.58;100.00;102365.31;5192697;28;20025;-67
2021/01/18 07:14:04;;;;;;;43.05;12.48;;;;;;;1.53;100.00;102363.75;5199534;28;20025;-67
2021/01/18 07:16:35;;;;;;;40.88;12.05;;;;;;;1.57;100.00;102355.69;5186937;28;20094;-68
2021/01/18 07:19:08;;;;;;;46.42;14.40;;;;;;;1.54;100.00;102362.81;5189408;28;20049;-68
2021/01/18 07:21:48;;;;;;;47.67;12.32;;;;;;;1.54;100.00;102365.44;5187397;28;20037;-67
2021/01/18 07:24:19;;;;;;;37.63;10.70;;;;;;;1.57;100.00;102351.25;5179063;28;20425;-67
2021/01/18 07:26:55;;;;;;;33.60;12.15;;;;;;;1.51;100.00;102354.19;5197079;28;20022;-67
2021/01/18 07:29:26;;;;;;;;;;;;;;;1.47;100.00;102348.16;5205147;28;20028;-67
2021/01/18 07:31:58;;;;;;;37.28;11.73;;;;;;;1.43;100.00;102353.66;5205332;28;19916;-67
2021/01/18 07:34:28;;;;;;;40.53;12.45;;;;;;;1.42;100.00;102357.25;5204268;28;20033;-67
2021/01/18 07:37:16;;;;;;;45.55;13.65;;;;;;;1.37;100.00;102361.88;5205486;28;20026;-68
2021/01/18 07:39:46;;;;;;;41.95;13.32;;;;;;;1.34;100.00;102368.16;5182449;28;20499;-67
2021/01/18 07:42:27;;;;;;;41.25;11.88;;;;;;;1.31;100.00;102359.53;5184304;28;20062;-67
2021/01/18 07:45:09;;;;;;;45.95;13.07;;;;;;;1.37;100.00;102354.81;5184196;28;20459;-67
2021/01/18 07:48:01;;;;;;;37.10;13.05;;;;;;;1.32;100.00;102355.94;5184319;28;20034;-66
2021/01/18 07:50:39;;;;;;;34.50;11.77;;;;;;;1.33;100.00;102355.00;5184760;28;20072;-67
2021/01/18 07:53:12;;;;;;;32.80;11.90;;;;;;;1.32;100.00;102353.31;5183113;28;20439;-68
2021/01/18 07:55:42;;;;;;;34.40;12.35;;;;;;;1.32;100.00;102353.31;5184351;28;20034;-67
2021/01/18 07:58:16;;;;;;;37.03;10.90;;;;;;;1.36;100.00;102362.81;5184590;28;20039;-68
2021/01/18 08:00:48;;;;;;;33.20;11.68;;;;;;;1.39;100.00;102358.22;5184420;28;20036;-68
2021/01/18 08:03:20;;;;;;;33.13;11.52;;;;;;;1.46;100.00;102359.69;5183418;28;20109;-68
2021/01/18 08:06:00;;;;;;;38.42;11.32;;;;;;;1.50;100.00;102352.44;5183591;28;20050;-67
2021/01/18 08:08:32;;;;;;;36.53;12.30;;;;;;;1.49;100.00;102358.66;5169025;28;20057;-67
2021/01/18 08:11:12;;;;;;;40.25;11.73;;;;;;;1.57;100.00;102358.31;5177390;28;20426;-68
2021/01/18 08:13:55;;;;;;;35.88;11.88;;;;;;;1.65;100.00;102361.44;5186050;28;20057;-67
2021/01/18 08:16:29;;;;;;;40.58;11.38;;;;;;;1.66;100.00;102371.13;5202834;28;20029;-67
2021/01/18 08:19:08;;;;;;;42.22;11.65;;;;;;;1.66;100.00;102379.06;5178156;28;20061;-68
2021/01/18 08:21:43;;;;;;;64.38;15.48;;;;;;;1.70;100.00;102378.81;5189481;28;20022;-67
2021/01/18 08:24:35;;;;;;;35.57;13.23;;;;;;;1.71;100.00;102371.78;5190150;28;20041;-68
2021/01/18 08:27:07;;;;;;;47.63;12.32;;;;;;;1.84;100.00;102366.75;5182127;28;20292;-67
2021/01/18 08:29:43;;;;;;;36.05;11.30;;;;;;;1.87;100.00;102371.91;5177984;28;20022;-67
2021/01/18 08:32:34;;;;;;;48.00;13.05;;;;;;;1.90;100.00;102379.66;5169919;28;20160;-68
2021/01/18 08:35:06;;;;;;;35.83;11.40;;;;;;;1.94;100.00;102381.25;5182079;28;20040;-67
2021/01/18 08:37:37;;;;;;;41.35;12.32;;;;;;;1.96;100.00;102374.09;5189406;28;20022;-68
2021/01/18 08:40:15;;;;;;;33.20;10.70;;;;;;;1.99;100.00;102376.59;5193275;28;20441;-68
2021/01/18 08:42:54;;;;;;;42.67;13.52;;;;;;;1.98;100.00;102375.75;5196089;28;20029;-68
2021/01/18 08:45:28;;;;;;;37.70;12.18;;;;;;;2.06;100.00;102384.19;5200322;28;20025;-67
2021/01/18 08:48:00;;;;;;;36.50;12.40;;;;;;;2.13;100.00;102378.59;5197583;28;20472;-67
2021/01/18 08:50:36;;;;;;;40.67;14.02;;;;;;;2.24;100.00;102371.81;5182572;28;20028;-66
2021/01/18 08:53:22;;;;;;;40.15;11.18;;;;;;;2.33;100.00;102375.81;5181208;28;20114;-68
2021/01/18 08:55:56;;;;;;;30.00;9.90;;;;;;;2.43;100.00;102385.03;5183222;28;20033;-67
2021/01/18 08:58:36;;;;;;;28.33;10.63;;;;;;;2.56;100.00;102379.94;5204258;28;20151;-67
2021/01/18 09:01:13;;;;;;;34.22;10.25;;;;;;;2.64;100.00;102383.09;5189965;28;20044;-68
2021/01/18 09:03:44;;;;;;;38.47;10.00;;;;;;;2.79;100.00;102390.25;5202217;28;20018;-67
2021/01/18 09:06:14;;;;;;;29.35;10.02;;;;;;;2.90;100.00;102389.69;5182135;28;20056;-67
2021/01/18 09:08:45;;;;;;;30.95;9.55;;;;;;;3.07;100.00;102392.34;5182592;28;20032;-68
2021/01/18 09:11:16;;;;;;;30.00;8.70;;;;;;;3.15;100.00;102389.28;5181465;28;20403;-67
2021/01/18 09:13:49;;;;;;;31.38;8.38;;;;;;;3.27;100.00;102393.09;5198440;28;20032;-67
2021/01/18 09:16:21;;;;;;;29.63;8.25;;;;;;;3.41;100.00;102395.84;5202939;28;20025;-68
2021/01/18 09:18:52;;;;;;;34.90;9.93;;;;;;;3.50;100.00;102395.34;5182861;28;20103;-68
2021/01/18 09:21:26;;;;;;;36.53;8.80;;;;;;;3.58;100.00;102397.59;5179763;28;20025;-67
2021/01/18 09:23:59;;;;;;;25.45;7.85;;;;;;;3.60;100.00;102399.22;5193509;28;20029;-67
2021/01/18 09:26:33;;;;;;;27.70;8.98;;;;;;;3.72;100.00;102397.72;5184706;28;20068;-68
2021/01/18 09:29:08;;;;;;;24.98;7.18;;;;;;;3.80;100.00;102390.16;5202888;28;20051;-68
2021/01/18 09:31:39;;;;;;;28.15;8.10;;;;;;;3.80;100.00;102398.13;5183403;28;20025;-67
2021/01/18 09:34:11;;;;;;;36.58;8.32;;;;;;;3.84;100.00;102393.53;5192305;28;20472;-68
2021/01/18 09:36:43;;;;;;;20.98;7.47;;;;;;;3.87;100.00;102388.91;5181696;28;20026;-68
2021/01/18 09:39:19;;;;;;;33.70;9.00;;;;;;;3.99;100.00;102397.13;5177078;28;20454;-68
2021/01/18 09:41:50;;;;;;;32.97;7.95;;;;;;;4.04;100.00;102387.94;5201932;28;20025;-67
2021/01/18 09:44:21;;;;;;;28.38;7.55;;;;;;;4.11;100.00;102389.31;5200928;28;20498;-68
2021/01/18 09:46:53;;;;;;;25.65;7.53;;;;;;;4.12;100.00;102393.69;5192235;28;20133;-68
2021/01/18 09:49:26;;;;;;;26.80;8.05;;;;;;;4.19;100.00;102383.56;5180022;28;20338;-68
2021/01/18 09:52:01;;;;;;;22.40;7.30;;;;;;;4.24;100.00;102385.97;5190170;28;20110;-67
2021/01/18 09:54:39;;;;;;;30.30;7.20;;;;;;;4.29;100.00;102387.41;5188177;28;20029;-67
2021/01/18 09:57:18;;;;;;;24.30;7.30;;;;;;;4.37;100.00;102377.22;5187788;28;20109;-67
2021/01/18 09:59:50;;;;;;;28.80;7.45;;;;;;;4.43;100.00;102375.16;5187649;28;20128;-68
2021/01/18 10:02:22;;;;;;;29.20;6.13;;;;;;;4.52;100.00;102390.53;5187251;28;20108;-68
2021/01/18 10:04:56;;;;;;;23.63;6.10;;;;;;;4.50;100.00;102371.16;5200985;28;20021;-67
2021/01/18 10:07:30;;;;;;;35.17;8.13;;;;;;;4.49;100.00;102388.06;5197121;28;20096;-67
2021/01/18 10:10:02;;;;;;;21.25;5.95;;;;;;;4.58;100.00;102375.09;5193137;28;20403;-67
2021/01/18 10:12:37;;;;;;;27.80;6.60;;;;;;;4.63;100.00;102385.47;5202073;28;20030;-67
2021/01/18 10:15:08;;;;;;;22.83;6.28;;;;;;;4.61;100.00;102379.38;5201305;28;20039;-67
2021/01/18 10:17:39;;;;;;;15.48;5.15;;;;;;;4.73;100.00;102373.34;5181500;28;20029;-68
2021/01/18 10:20:11;;;;;;;28.15;5.63;;;;;;;4.91;100.00;102366.03;5181302;28;20047;-67
2021/01/18 10:22:42;;;;;;;19.98;5.78;;;;;;;4.99;100.00;102365.59;5180305;28;20026;-68
2021/01/18 10:25:13;;;;;;;21.33;4.82;;;;;;;5.06;100.00;102361.59;5171809;28;20025;-68
2021/01/18 10:27:54;;;;;;;16.92;5.07;;;;;;;5.17;100.00;102356.47;5201177;28;20056;-68
2021/01/18 10:30:29;;;;;;;26.90;5.70;;;;;;;5.01;100.00;102363.69;5169376;28;20068;-68
2021/01/18 10:33:01;;;;;;;23.23;6.53;;;;;;;5.09;100.00;102361.44;5182265;28;20040;-67
2021/01/18 10:35:35;;;;;;;30.20;6.70;;;;;;;5.19;100.00;102360.75;5190261;28;20628;-67
2021/01/18 10:38:21;;;;;;;18.20;5.57;;;;;;;5.18;100.00;102356.41;5183832;28;20138;-67
2021/01/18 10:41:02;;;;;;;;;;;;;;;5.30;100.00;102338.81;5201595;28;20025;-67
2021/01/18 10:43:38;;;;;;;22.92;5.65;;;;;;;5.25;100.00;102345.38;5160415;28;19984;-67
2021/01/18 10:46:20;;;;;;;33.83;9.25;;;;;;;5.35;100.00;102333.19;5176514;28;20396;-67
2021/01/18 10:48:59;;;;;;;16.15;5.88;;;;;;;5.43;100.00;102331.78;5193691;28;20227;-67
2021/01/18 10:51:32;;;;;;;20.17;4.97;;;;;;;5.46;100.00;102333.38;5193948;28;20121;-67
2021/01/18 10:54:03;;;;;;;44.28;7.30;;;;;;;5.45;100.00;102334.34;5180111;28;20082;-67
2021/01/18 10:56:35;;;;;;;18.05;4.88;;;;;;;5.44;100.00;102321.97;5180647;28;21035;-67
2021/01/18 10:59:12;;;;;;;20.77;5.68;;;;;;;5.46;100.00;102325.38;5194804;28;20068;-68
2021/01/18 11:02:04;;;;;;;12.52;4.50;;;;;;;5.45;100.00;102327.19;5180399;28;20026;-68
2021/01/18 11:04:44;;;;;;;16.35;6.20;;;;;;;5.46;100.00;102323.56;5180897;28;20250;-67
2021/01/18 11:07:17;;;;;;;18.95;5.40;;;;;;;5.56;100.00;102310.53;5206761;28;20278;-67
2021/01/18 11:09:57;;;;;;;25.45;5.50;;;;;;;5.56;100.00;102313.19;5195372;28;20459;-67
2021/01/18 11:12:31;;;;;;;25.45;6.45;;;;;;;5.51;100.00;102314.44;5185175;28;20026;-67
2021/01/18 11:15:05;;;;;;;21.80;4.93;;;;;;;5.43;100.00;102313.16;5184978;28;20079;-67
2021/01/18 11:17:36;;;;;;;25.65;5.22;;;;;;;5.49;100.00;102303.91;5195739;28;20033;-67
2021/01/18 11:20:09;;;;;;;16.35;5.47;;;;;;;5.54;100.00;102301.81;5198039;28;20025;-67
2021/01/18 11:22:40;;;;;;;19.15;6.38;;;;;;;5.67;100.00;102302.75;5204459;28;20044;-67
2021/01/18 11:25:12;;;;;;;30.65;5.60;;;;;;;5.84;100.00;102288.31;5174585;28;20029;-67
2021/01/18 11:27:43;;;;;;;39.30;7.07;;;;;;;5.79;100.00;102298.41;5184037;28;20115;-67
2021/01/18 11:30:15;;;;;;;24.42;5.55;;;;;;;5.80;100.00;102289.47;5204196;28;20071;-67
2021/01/18 11:32:48;;;;;;;18.05;4.97;;;;;;;5.96;100.00;102295.53;5205247;28;20479;-67
2021/01/18 11:35:21;;;;;;;17.70;4.97;;;;;;;5.95;100.00;102279.66;5205836;28;20029;-67
2021/01/18 11:37:52;;;;;;;23.95;6.38;;;;;;;5.91;100.00;102281.66;5195933;28;20030;-68
2021/01/18 11:40:23;;;;;;;26.38;6.75;;;;;;;5.87;100.00;102284.59;5182196;28;20038;-67
2021/01/18 11:43:01;;;;;;;28.05;5.93;;;;;;;5.80;100.00;102276.16;5183029;28;20036;-67
2021/01/18 11:45:36;;;;;;;17.70;5.00;;;;;;;5.84;100.00;102285.66;5197070;28;20017;-67